Time;durP1;ratioP1;P1;durP2;ratioP2;P2;SDS_P1;SDS_P2;PMS_P1;PMS_P2;Temp;Humidity;BMP_temperature;BMP_pressure;BME280_temperature;BME280_humidity;BME280_pressure;Samples;Min_cycle;Max_cycle;Signal;HPM_P1;HPM_P2
2022/06/21 00:02:00;;;;;;;2.50;1.23;;;15.80;99.90;;;;;;5078863;28;20051;-66
2022/06/21 00:04:26;;;;;;;3.78;1.27;;;15.70;99.90;;;;;;5097055;28;20485;-66
2022/06/21 00:06:51;;;;;;;2.58;1.00;;;15.60;99.90;;;;;;5096741;28;20112;-66
2022/06/21 00:09:17;;;;;;;1.50;0.88;;;15.60;99.90;;;;;;5096298;28;20088;-65
2022/06/21 00:11:43;;;;;;;1.55;0.90;;;15.60;99.90;;;;;;5077958;28;20031;-66
2022/06/21 00:14:09;;;;;;;2.72;1.20;;;15.70;99.90;;;;;;5096000;28;20044;-66
2022/06/21 00:16:35;;;;;;;2.67;1.33;;;15.70;99.90;;;;;;5098146;28;20118;-66
2022/06/21 00:19:02;;;;;;;2.05;0.88;;;15.70;99.90;;;;;;5097486;28;20024;-66
2022/06/21 00:21:33;;;;;;;1.85;1.00;;;15.60;99.90;;;;;;5096791;28;20021;-66
2022/06/21 00:23:59;;;;;;;2.13;1.20;;;15.60;99.90;;;;;;5097049;28;20070;-65
2022/06/21 00:26:26;;;;;;;1.43;1.07;;;15.50;99.90;;;;;;5096368;28;20431;-66
2022/06/21 00:28:52;;;;;;;1.58;1.00;;;15.40;99.90;;;;;;5095800;28;20020;-66
2022/06/21 00:31:21;;;;;;;1.83;1.10;;;15.40;99.90;;;;;;5096090;28;20342;-66
2022/06/21 00:33:47;;;;;;;2.45;0.90;;;15.40;99.90;;;;;;5095322;28;20024;-66
2022/06/21 00:36:25;;;;;;;2.80;1.27;;;15.30;99.90;;;;;;5095865;28;20031;-66
2022/06/21 00:38:52;;;;;;;2.72;1.10;;;15.20;99.90;;;;;;5095522;28;20020;-65
2022/06/21 00:41:25;;;;;;;1.90;0.98;;;15.20;99.90;;;;;;5095343;28;20020;-65
2022/06/21 00:43:53;;;;;;;2.70;1.00;;;15.10;99.90;;;;;;5094753;28;20077;-66
2022/06/21 00:46:46;;;;;;;2.20;1.10;;;15.10;99.90;;;;;;5095554;28;20032;-65
2022/06/21 00:49:23;;;;;;;1.38;0.90;;;15.10;99.90;;;;;;5095031;28;20077;-66
2022/06/21 00:51:51;;;;;;;;;;;15.10;99.90;;;;;;5095517;28;20038;-67
2022/06/21 00:54:23;;;;;;;;;;;15.10;99.90;;;;;;5096202;28;20314;-67
2022/06/21 00:57:02;;;;;;;2.88;1.23;;;15.10;99.90;;;;;;5094711;28;20041;-66
2022/06/21 00:59:32;;;;;;;5.72;1.58;;;15.10;99.90;;;;;;5094819;28;20103;-66
2022/06/21 01:02:03;;;;;;;2.00;0.80;;;15.00;99.90;;;;;;5094994;28;20078;-65
2022/06/21 01:04:39;;;;;;;1.30;1.05;;;14.90;99.90;;;;;;5094799;28;20056;-65
2022/06/21 01:07:08;;;;;;;2.33;0.90;;;14.80;99.90;;;;;;5076402;28;20126;-65
2022/06/21 01:09:50;;;;;;;3.60;1.02;;;14.70;99.90;;;;;;5094365;28;20168;-66
2022/06/21 01:12:23;;;;;;;2.83;1.45;;;14.70;99.90;;;;;;5094831;28;20112;-66
2022/06/21 01:14:59;;;;;;;1.65;1.00;;;14.70;99.90;;;;;;5076413;28;20027;-66
2022/06/21 01:17:26;;;;;;;6.05;1.13;;;14.60;99.90;;;;;;5094502;28;20020;-66
2022/06/21 01:19:56;;;;;;;;;;;14.60;99.90;;;;;;5076520;28;20028;-66
2022/06/21 01:22:27;;;;;;;1.45;1.00;;;14.60;99.90;;;;;;5094349;28;19904;-66
2022/06/21 01:25:22;;;;;;;4.50;1.00;;;14.60;99.90;;;;;;5094485;28;20044;-66
2022/06/21 01:27:48;;;;;;;2.80;0.80;;;14.50;99.90;;;;;;5039550;28;20120;-66
2022/06/21 01:30:14;;;;;;;1.30;1.00;;;14.40;99.90;;;;;;5094471;28;20157;-66
2022/06/21 01:32:40;;;;;;;2.40;1.02;;;14.30;99.90;;;;;;5076239;28;20040;-66
2022/06/21 01:35:28;;;;;;;1.00;0.82;;;14.30;99.90;;;;;;5094211;28;20540;-65
2022/06/21 01:37:54;;;;;;;;;;;14.20;99.90;;;;;;5094697;28;20544;-66
2022/06/21 01:40:26;;;;;;;1.65;1.20;;;14.30;99.90;;;;;;5094333;28;20327;-64
2022/06/21 01:42:56;;;;;;;2.03;1.10;;;14.20;99.90;;;;;;5094045;28;20492;-65
2022/06/21 01:45:27;;;;;;;2.95;1.10;;;14.20;99.90;;;;;;5094335;28;20062;-64
2022/06/21 01:48:07;;;;;;;4.13;1.40;;;14.20;99.90;;;;;;5094111;28;20028;-67
2022/06/21 01:50:36;;;;;;;2.70;1.10;;;14.10;99.90;;;;;;5093978;28;20020;-65
2022/06/21 01:53:03;;;;;;;2.33;0.85;;;14.10;99.90;;;;;;5075706;28;20032;-64
2022/06/21 01:55:39;;;;;;;1.45;1.20;;;14.10;99.90;;;;;;5093999;28;20346;-65
2022/06/21 01:58:08;;;;;;;1.40;1.15;;;14.10;99.90;;;;;;5094032;28;20024;-65
2022/06/21 02:00:36;;;;;;;2.25;1.10;;;14.10;99.90;;;;;;5094042;28;20061;-66
2022/06/21 02:03:08;;;;;;;1.08;0.98;;;14.10;99.90;;;;;;5094010;28;20020;-65
2022/06/21 02:05:40;;;;;;;3.08;1.00;;;14.10;99.90;;;;;;5093657;28;20024;-64
2022/06/21 02:08:12;;;;;;;2.08;1.23;;;14.10;99.90;;;;;;5093982;28;20058;-64
2022/06/21 02:10:50;;;;;;;1.23;1.02;;;14.10;99.90;;;;;;5075505;28;20047;-65
2022/06/21 02:13:36;;;;;;;2.35;1.10;;;14.00;99.90;;;;;;5094268;28;20040;-65
2022/06/21 02:16:10;;;;;;;1.38;0.90;;;14.10;99.90;;;;;;5093102;28;20036;-65
2022/06/21 02:18:41;;;;;;;2.65;1.00;;;14.00;99.90;;;;;;5093709;28;20099;-65
2022/06/21 02:21:19;;;;;;;2.38;1.10;;;14.10;99.90;;;;;;5076781;28;20048;-64
2022/06/21 02:23:50;;;;;;;2.22;1.00;;;14.00;99.90;;;;;;5095394;28;20429;-64
2022/06/21 02:26:15;;;;;;;1.67;1.02;;;14.00;99.90;;;;;;5094390;28;20075;-64
2022/06/21 02:28:42;;;;;;;2.37;0.90;;;14.00;99.90;;;;;;5093575;28;20063;-64
2022/06/21 02:31:08;;;;;;;2.30;1.00;;;14.00;99.90;;;;;;5094295;28;20020;-63
2022/06/21 02:33:34;;;;;;;;;;;13.90;99.90;;;;;;5094193;28;20123;-64
2022/06/21 02:36:12;;;;;;;1.63;1.10;;;14.00;99.90;;;;;;5093386;28;19931;-64
2022/06/21 02:38:40;;;;;;;1.83;0.90;;;13.90;99.90;;;;;;5093650;28;20035;-65
2022/06/21 02:41:14;;;;;;;3.38;1.08;;;13.90;99.90;;;;;;5093308;28;20042;-64
2022/06/21 02:43:44;;;;;;;2.13;0.90;;;13.90;99.90;;;;;;5093474;28;20036;-64
2022/06/21 02:46:15;;;;;;;3.15;1.35;;;13.80;99.90;;;;;;5094082;28;20048;-64
2022/06/21 02:48:56;;;;;;;2.63;0.90;;;13.80;99.90;;;;;;5093582;28;20027;-64
2022/06/21 02:51:30;;;;;;;2.88;1.20;;;13.70;99.90;;;;;;5093773;28;20020;-65
2022/06/21 02:54:04;;;;;;;3.65;1.10;;;13.70;99.90;;;;;;5075795;28;20024;-64
2022/06/21 02:56:55;;;;;;;2.80;0.80;;;13.80;99.90;;;;;;5095130;28;20027;-65
2022/06/21 02:59:21;;;;;;;1.63;1.15;;;13.80;99.90;;;;;;5075926;28;20020;-65
2022/06/21 03:01:54;;;;;;;2.15;1.40;;;13.80;99.90;;;;;;5093816;28;20103;-64
2022/06/21 03:04:26;;;;;;;1.67;0.95;;;13.80;99.90;;;;;;5095522;28;20052;-64
2022/06/21 03:06:52;;;;;;;1.48;1.15;;;13.80;99.90;;;;;;5098004;28;20024;-64
2022/06/21 03:09:21;;;;;;;2.17;1.17;;;13.70;99.90;;;;;;5098263;28;20024;-64
2022/06/21 03:11:52;;;;;;;2.97;1.20;;;13.70;99.90;;;;;;5078794;28;20028;-64
2022/06/21 03:14:22;;;;;;;1.40;1.00;;;13.70;99.90;;;;;;5097126;28;20376;-64
2022/06/21 03:16:48;;;;;;;3.08;1.05;;;13.60;99.90;;;;;;5097956;28;20016;-62
2022/06/21 03:19:23;;;;;;;3.38;1.40;;;13.60;99.90;;;;;;5097295;28;20508;-64
2022/06/21 03:21:49;;;;;;;1.50;1.10;;;13.70;99.90;;;;;;5078872;28;20032;-64
2022/06/21 03:24:20;;;;;;;1.45;1.30;;;13.70;99.90;;;;;;5096670;28;20411;-64
2022/06/21 03:27:10;;;;;;;3.13;1.20;;;13.60;99.90;;;;;;5078651;28;20558;-64
2022/06/21 03:29:35;;;;;;;1.73;1.35;;;13.60;99.90;;;;;;5064956;28;20036;-65
2022/06/21 03:32:02;;;;;;;2.90;1.10;;;13.60;99.90;;;;;;5096482;28;20036;-65
2022/06/21 03:34:29;;;;;;;1.20;0.90;;;13.60;99.90;;;;;;5078217;28;20056;-64
2022/06/21 03:36:58;;;;;;;2.17;1.13;;;13.50;99.90;;;;;;5097544;28;20020;-64
2022/06/21 03:42:15;;;;;;;2.08;1.13;;;13.60;99.90;;;;;;5096320;28;20120;-65
2022/06/21 03:45:00;;;;;;;2.58;1.20;;;13.60;99.90;;;;;;5096668;28;20102;-65
2022/06/21 03:47:33;;;;;;;3.45;1.10;;;13.60;99.90;;;;;;5096095;28;20385;-65
2022/06/21 03:50:13;;;;;;;2.10;1.10;;;13.60;99.90;;;;;;5095879;28;20028;-65
2022/06/21 03:52:45;;;;;;;3.45;1.20;;;13.60;99.90;;;;;;5077776;28;20473;-64
2022/06/21 03:55:25;;;;;;;2.60;1.15;;;13.50;99.90;;;;;;5095853;28;20026;-65
2022/06/21 03:58:07;;;;;;;1.67;1.27;;;13.50;99.90;;;;;;5077692;28;20489;-63
2022/06/21 04:00:44;;;;;;;2.47;1.30;;;13.50;99.90;;;;;;5077596;28;20028;-64
2022/06/21 04:03:20;;;;;;;2.92;1.30;;;13.50;99.90;;;;;;5096028;28;20022;-64
2022/06/21 04:05:54;;;;;;;2.78;1.10;;;13.50;99.90;;;;;;5095684;28;20532;-64
2022/06/21 04:08:38;;;;;;;2.72;1.33;;;13.50;99.90;;;;;;5095948;28;20487;-65
2022/06/21 04:11:26;;;;;;;2.38;1.30;;;13.60;99.90;;;;;;5096046;28;20024;-65
2022/06/21 04:14:07;;;;;;;2.92;1.30;;;13.70;99.90;;;;;;5095950;28;20498;-65
2022/06/21 04:16:48;;;;;;;1.48;1.10;;;13.80;99.90;;;;;;5077753;28;20427;-65
2022/06/21 04:19:39;;;;;;;2.38;1.10;;;13.80;99.90;;;;;;5094844;28;20024;-65
2022/06/21 04:22:51;;;;;;;2.88;1.35;;;13.90;99.90;;;;;;5077520;28;20028;-65
2022/06/21 04:25:30;;;;;;;3.15;1.15;;;13.90;99.90;;;;;;5032893;28;20073;-64
2022/06/21 04:28:14;;;;;;;1.92;1.13;;;14.00;99.90;;;;;;5033407;28;20034;-63
2022/06/21 04:30:58;;;;;;;3.17;1.33;;;14.10;99.90;;;;;;5033344;28;20517;-63
2022/06/21 04:33:30;;;;;;;2.22;1.30;;;14.20;99.90;;;;;;5033236;28;20037;-64
2022/06/21 04:36:03;;;;;;;2.35;1.20;;;14.20;99.90;;;;;;5016700;28;20116;-65
2022/06/21 04:38:44;;;;;;;3.25;1.23;;;14.20;99.90;;;;;;5033367;28;20029;-64
2022/06/21 04:41:23;;;;;;;2.75;1.23;;;14.30;99.90;;;;;;5033298;28;20024;-64
2022/06/21 04:44:14;;;;;;;3.30;1.08;;;14.40;99.90;;;;;;5032824;28;20055;-65
2022/06/21 04:46:56;;;;;;;1.95;1.05;;;14.40;99.90;;;;;;5032829;28;20032;-65
2022/06/21 04:49:42;;;;;;;3.15;1.20;;;14.50;99.90;;;;;;5033316;28;20029;-63
2022/06/21 04:52:13;;;;;;;3.42;1.15;;;14.60;99.90;;;;;;5033324;28;20022;-64
2022/06/21 04:54:40;;;;;;;2.53;0.95;;;14.70;99.90;;;;;;5033496;28;20520;-64
2022/06/21 04:57:21;;;;;;;2.72;1.13;;;14.70;99.90;;;;;;5033237;28;20398;-64
2022/06/21 04:59:53;;;;;;;1.40;1.10;;;14.70;99.90;;;;;;5033322;28;20167;-64
2022/06/21 05:02:21;;;;;;;2.03;1.33;;;14.80;99.90;;;;;;5079520;28;20036;-65
2022/06/21 05:04:50;;;;;;;3.50;1.20;;;14.90;99.90;;;;;;5095172;28;20360;-65
2022/06/21 05:07:23;;;;;;;4.80;1.10;;;15.00;99.90;;;;;;5094435;28;20035;-64
2022/06/21 05:09:50;;;;;;;3.13;1.17;;;15.20;99.90;;;;;;5094601;28;20507;-64
2022/06/21 05:12:21;;;;;;;1.52;0.90;;;15.30;99.90;;;;;;5076262;28;20024;-64
2022/06/21 05:14:51;;;;;;;1.95;1.33;;;15.30;99.90;;;;;;5094859;28;20377;-65
2022/06/21 05:17:18;;;;;;;3.10;1.48;;;15.40;99.90;;;;;;5076182;28;20130;-65
2022/06/21 05:19:48;;;;;;;3.25;1.38;;;15.40;99.90;;;;;;5076278;28;20024;-65
2022/06/21 05:22:27;;;;;;;3.15;1.40;;;15.50;99.90;;;;;;5094937;28;20369;-65
2022/06/21 05:24:54;;;;;;;4.50;1.33;;;15.60;99.90;;;;;;5094799;28;20028;-65
2022/06/21 05:27:32;;;;;;;6.50;2.83;;;15.60;99.90;;;;;;5094835;28;20377;-65
2022/06/21 05:30:15;;;;;;;1.98;1.33;;;15.80;99.90;;;;;;5093992;28;20020;-66
2022/06/21 05:32:46;;;;;;;2.15;1.30;;;15.80;99.90;;;;;;5093971;28;20481;-65
2022/06/21 05:35:19;;;;;;;2.70;1.10;;;15.90;99.90;;;;;;5094351;28;20032;-65
2022/06/21 05:38:02;;;;;;;2.95;1.17;;;16.00;99.90;;;;;;5094874;28;20100;-65
2022/06/21 05:40:56;;;;;;;4.55;1.25;;;16.10;99.90;;;;;;5094237;28;20049;-66
2022/06/21 05:43:36;;;;;;;3.88;1.30;;;16.10;99.90;;;;;;5085765;28;20105;-65
2022/06/21 05:46:15;;;;;;;2.20;1.17;;;16.20;99.90;;;;;;5094314;28;20465;-66
2022/06/21 05:48:42;;;;;;;4.25;1.23;;;16.40;99.90;;;;;;5093822;28;20034;-66
2022/06/21 05:51:19;;;;;;;3.22;1.27;;;16.50;99.90;;;;;;5075727;28;20020;-65
2022/06/21 05:53:48;;;;;;;4.50;1.20;;;16.60;99.90;;;;;;5093883;28;20592;-65
2022/06/21 05:56:19;;;;;;;5.80;1.20;;;16.70;99.90;;;;;;5093720;28;20051;-66
2022/06/21 05:58:53;;;;;;;2.10;1.25;;;16.80;99.90;;;;;;5094512;28;20073;-66
2022/06/21 06:01:27;;;;;;;4.10;1.23;;;16.80;99.90;;;;;;5078626;28;20051;-65
2022/06/21 06:04:01;;;;;;;1.70;1.27;;;16.90;99.80;;;;;;5101377;28;20028;-66
2022/06/21 06:06:34;;;;;;;3.35;1.30;;;17.10;99.90;;;;;;5100364;28;20549;-66
2022/06/21 06:09:10;;;;;;;3.63;1.50;;;17.10;99.10;;;;;;5081773;28;20028;-65
2022/06/21 06:12:00;;;;;;;1.48;1.00;;;17.20;99.20;;;;;;5080984;28;20206;-67
2022/06/21 06:14:34;;;;;;;3.00;1.30;;;17.30;99.10;;;;;;5097609;28;20052;-65
2022/06/21 06:17:06;;;;;;;5.32;1.60;;;17.50;98.70;;;;;;5098395;28;20020;-65
2022/06/21 06:19:38;;;;;;;2.33;1.10;;;17.60;98.40;;;;;;5100570;28;20020;-65
2022/06/21 06:22:42;;;;;;;3.22;1.40;;;17.70;98.20;;;;;;5101754;28;20028;-66
2022/06/21 06:25:32;;;;;;;5.43;1.50;;;17.80;97.80;;;;;;5087978;28;20039;-66
2022/06/21 06:28:23;;;;;;;2.20;1.15;;;18.00;97.80;;;;;;5095595;28;20024;-66
2022/06/21 06:30:52;;;;;;;4.20;1.40;;;18.00;97.30;;;;;;5096696;28;20024;-65
2022/06/21 06:33:43;;;;;;;3.38;1.25;;;18.10;97.00;;;;;;5077557;28;20031;-65
2022/06/21 06:36:32;;;;;;;2.47;1.25;;;18.20;96.80;;;;;;5076230;28;20019;-65
2022/06/21 06:39:00;;;;;;;3.70;1.50;;;18.20;96.80;;;;;;5094389;28;20059;-67
2022/06/21 06:41:45;;;;;;;2.20;1.30;;;18.30;96.50;;;;;;5095922;28;20031;-66
2022/06/21 06:44:11;;;;;;;3.97;1.40;;;18.40;96.20;;;;;;5097964;28;20024;-66
2022/06/21 06:46:44;;;;;;;4.20;1.50;;;18.60;95.90;;;;;;5097534;28;20047;-65
2022/06/21 06:49:39;;;;;;;3.65;1.30;;;18.70;95.60;;;;;;5097393;28;20103;-66
2022/06/21 06:52:21;;;;;;;5.00;1.83;;;18.80;95.40;;;;;;5098206;28;20032;-66
2022/06/21 06:55:18;;;;;;;5.38;1.10;;;18.80;95.40;;;;;;5097666;28;20028;-65
2022/06/21 06:57:52;;;;;;;9.48;1.50;;;19.00;95.00;;;;;;5097055;28;20069;-65
2022/06/21 07:00:47;;;;;;;3.08;1.20;;;19.30;94.90;;;;;;5096638;28;20043;-64
2022/06/21 07:03:23;;;;;;;4.28;1.42;;;19.40;94.60;;;;;;5078517;28;20032;-65
2022/06/21 07:06:06;;;;;;;2.58;1.20;;;19.30;94.70;;;;;;5096966;28;20028;-65
2022/06/21 07:08:48;;;;;;;5.00;1.40;;;19.40;94.80;;;;;;5078151;28;20076;-65
2022/06/21 07:11:45;;;;;;;3.17;1.20;;;19.20;94.70;;;;;;5096397;28;20047;-65
2022/06/21 07:14:24;;;;;;;6.22;1.45;;;19.10;94.90;;;;;;5096430;28;20023;-65
2022/06/21 07:16:58;;;;;;;3.28;1.63;;;19.20;94.90;;;;;;5078111;28;20020;-65
2022/06/21 07:19:24;;;;;;;4.85;1.48;;;19.10;94.80;;;;;;5096356;28;20020;-65
2022/06/21 07:21:49;;;;;;;5.10;1.40;;;19.10;94.90;;;;;;5096221;28;20024;-65
2022/06/21 07:24:19;;;;;;;3.50;1.30;;;19.10;94.80;;;;;;5096339;28;20067;-65
2022/06/21 07:26:51;;;;;;;4.82;1.70;;;19.20;94.70;;;;;;5096125;28;20047;-65
2022/06/21 07:29:42;;;;;;;2.85;1.50;;;19.40;94.80;;;;;;5077928;28;20035;-66
2022/06/21 07:32:12;;;;;;;2.30;1.20;;;19.50;94.40;;;;;;5095983;28;20028;-66
2022/06/21 07:34:50;;;;;;;5.00;1.33;;;19.60;94.40;;;;;;5096174;28;20472;-66
2022/06/21 07:37:41;;;;;;;5.25;1.20;;;19.70;94.40;;;;;;5096353;28;20044;-66
2022/06/21 07:40:20;;;;;;;2.67;1.30;;;19.90;94.30;;;;;;5117363;22;20041;-61
2022/06/21 07:42:57;;;;;;;4.20;1.85;;;19.90;94.20;;;;;;5098942;28;20028;-61
2022/06/21 07:45:55;;;;;;;4.50;1.30;;;20.30;94.10;;;;;;5097951;28;20474;-62
2022/06/21 07:48:53;;;;;;;1.70;1.27;;;20.80;93.30;;;;;;5078510;28;20038;-61
2022/06/21 07:51:30;;;;;;;3.05;1.50;;;22.00;91.50;;;;;;5033847;28;20461;-61
2022/06/21 07:54:09;;;;;;;5.00;1.48;;;23.10;89.30;;;;;;5033787;28;20021;-61
2022/06/21 07:56:57;;;;;;;3.85;1.30;;;23.30;87.40;;;;;;5033991;28;20069;-59
2022/06/21 07:59:47;;;;;;;4.82;1.60;;;23.00;87.40;;;;;;5033320;28;20464;-62
2022/06/21 08:08:23;;;;;;;2.22;1.30;;;22.30;89.50;;;;;;5033529;28;20044;-60
2022/06/21 08:10:57;;;;;;;5.65;1.80;;;22.50;88.80;;;;;;5033665;28;20053;-62
2022/06/21 08:13:22;;;;;;;5.55;2.05;;;22.90;88.00;;;;;;5033693;28;20026;-66
2022/06/21 08:15:53;;;;;;;;;;;23.20;87.40;;;;;;5034073;28;20060;-65
2022/06/21 08:18:29;;;;;;;3.20;1.63;;;23.00;87.90;;;;;;5033698;28;19905;-64
2022/06/21 08:21:00;;;;;;;4.40;1.75;;;22.70;89.20;;;;;;5033658;28;20091;-65
2022/06/21 08:23:37;;;;;;;3.83;1.77;;;22.20;90.30;;;;;;5033411;28;20176;-65
2022/06/21 08:26:16;;;;;;;5.38;1.88;;;21.80;90.90;;;;;;5033745;28;20029;-65
2022/06/21 08:28:53;;;;;;;5.75;1.90;;;21.60;91.50;;;;;;5072919;28;20063;-64
2022/06/21 08:31:30;;;;;;;2.92;1.55;;;21.50;91.70;;;;;;5075638;28;20074;-65
2022/06/21 08:34:23;;;;;;;5.20;1.40;;;21.40;92.10;;;;;;5076040;28;20035;-65
2022/06/21 08:36:58;;;;;;;3.92;1.90;;;21.60;92.10;;;;;;5075668;28;20059;-64
2022/06/21 08:39:54;;;;;;;4.57;1.60;;;21.70;92.10;;;;;;5075025;28;20024;-65
2022/06/21 08:43:00;;;;;;;6.72;2.00;;;21.70;92.00;;;;;;5057441;28;20044;-65
2022/06/21 08:46:07;;;;;;;4.45;1.80;;;21.90;92.00;;;;;;5071720;28;20040;-65
2022/06/21 08:48:58;;;;;;;4.13;1.60;;;21.90;92.00;;;;;;5064390;28;20453;-65
2022/06/21 08:51:42;;;;;;;3.72;1.75;;;22.00;92.10;;;;;;5057088;28;20115;-65
2022/06/21 08:54:26;;;;;;;3.92;1.67;;;22.00;92.00;;;;;;5075433;28;20021;-64
2022/06/21 08:57:19;;;;;;;6.63;1.70;;;22.10;92.10;;;;;;5057102;28;20032;-65
2022/06/21 09:00:12;;;;;;;6.60;1.80;;;22.40;91.80;;;;;;5074869;28;20016;-65
2022/06/21 09:02:47;;;;;;;3.88;1.60;;;22.80;91.30;;;;;;5075145;28;20020;-65
2022/06/21 09:05:22;;;;;;;6.07;1.50;;;24.20;89.60;;;;;;5073687;28;20025;-65
2022/06/21 09:08:22;;;;;;;3.47;1.77;;;25.10;86.30;;;;;;5056387;28;20393;-66
2022/06/21 09:11:00;;;;;;;3.50;1.83;;;26.00;83.30;;;;;;5074356;28;20102;-65
2022/06/21 09:13:56;;;;;;;4.80;2.00;;;26.20;82.40;;;;;;5056503;28;20384;-63
2022/06/21 09:16:41;;;;;;;5.30;1.80;;;26.00;81.00;;;;;;5075137;28;20074;-61
2022/06/21 09:19:15;;;;;;;7.32;2.47;;;25.40;82.40;;;;;;5057553;28;20048;-62
2022/06/21 09:22:09;;;;;;;4.70;2.03;;;26.10;80.80;;;;;;5074464;28;20074;-62
2022/06/21 09:24:55;;;;;;;3.85;1.60;;;26.40;79.60;;;;;;5057088;28;20039;-62
2022/06/21 09:27:36;;;;;;;6.93;1.67;;;27.30;78.10;;;;;;5057552;28;20051;-63
2022/06/21 09:30:13;;;;;;;2.90;1.40;;;28.00;75.30;;;;;;5074594;28;20064;-62
2022/06/21 09:32:52;;;;;;;5.63;1.75;;;28.50;74.20;;;;;;5075865;28;20020;-63
2022/06/21 09:35:24;;;;;;;3.33;1.50;;;28.00;73.70;;;;;;5076553;28;20078;-63
2022/06/21 09:38:14;;;;;;;5.75;1.70;;;28.30;73.70;;;;;;5061221;28;20029;-62
2022/06/21 09:40:59;;;;;;;6.57;1.80;;;28.80;72.50;;;;;;5078074;28;20144;-61
2022/06/21 09:43:43;;;;;;;3.95;1.42;;;29.50;70.70;;;;;;5077807;28;20476;-62
2022/06/21 09:46:21;;;;;;;4.38;1.70;;;29.60;69.90;;;;;;5077032;28;20029;-60
2022/06/21 09:49:00;;;;;;;4.18;1.52;;;29.60;69.60;;;;;;5076119;28;20074;-62
2022/06/21 09:51:44;;;;;;;7.78;1.88;;;29.60;69.40;;;;;;5075799;28;20044;-61
2022/06/21 09:54:15;;;;;;;4.30;1.73;;;29.80;69.10;;;;;;5075676;28;20051;-62
2022/06/21 09:56:59;;;;;;;5.90;1.70;;;30.00;69.20;;;;;;5075064;28;20110;-61
2022/06/21 09:59:32;;;;;;;5.60;1.95;;;30.10;68.00;;;;;;5073680;28;20021;-62
2022/06/21 10:02:34;;;;;;;8.90;2.08;;;30.10;67.50;;;;;;5074576;28;20025;-63
2022/06/21 10:05:22;;;;;;;5.93;2.13;;;29.20;69.20;;;;;;5072729;28;20040;-62
2022/06/21 10:08:14;;;;;;;3.03;1.65;;;29.50;69.00;;;;;;5073558;28;20028;-61
2022/06/21 10:11:02;;;;;;;2.85;1.65;;;30.10;67.30;;;;;;5073604;28;20048;-62
2022/06/21 10:14:14;;;;;;;4.15;2.10;;;29.60;67.20;;;;;;5073464;28;20420;-62
2022/06/21 10:17:08;;;;;;;5.03;2.15;;;29.00;68.40;;;;;;5057086;28;20060;-63
2022/06/21 10:20:21;;;;;;;6.60;1.92;;;29.00;69.00;;;;;;5074307;28;20477;-61
2022/06/21 10:23:19;;;;;;;5.75;2.10;;;29.00;69.10;;;;;;5051734;28;20120;-62
2022/06/21 10:26:15;;;;;;;3.38;1.80;;;29.60;68.00;;;;;;5074231;28;20040;-62
2022/06/21 10:29:04;;;;;;;6.55;2.53;;;29.70;67.20;;;;;;5074307;28;20039;-62
2022/06/21 10:31:32;;;;;;;4.38;1.90;;;30.20;67.40;;;;;;5062214;28;20028;-62
2022/06/21 10:34:29;;;;;;;7.13;1.75;;;31.40;65.90;;;;;;5073476;28;20123;-63
2022/06/21 10:37:12;;;;;;;4.75;2.47;;;31.00;65.30;;;;;;5074310;28;20440;-63
2022/06/21 10:40:09;;;;;;;5.00;2.22;;;30.40;67.00;;;;;;5055877;28;20484;-62
2022/06/21 10:43:15;;;;;;;4.85;2.30;;;30.80;66.20;;;;;;5073293;28;20040;-63
2022/06/21 10:45:54;;;;;;;3.97;1.98;;;30.80;65.80;;;;;;5055386;28;20493;-63
2022/06/21 10:48:37;;;;;;;3.63;1.90;;;30.20;67.00;;;;;;5073653;28;20024;-64
2022/06/21 10:51:34;;;;;;;6.13;1.98;;;30.50;66.50;;;;;;5073397;28;20028;-63
2022/06/21 10:54:21;;;;;;;3.05;1.77;;;29.90;66.70;;;;;;5056470;28;20021;-64
2022/06/21 10:57:14;;;;;;;6.47;2.15;;;30.20;66.30;;;;;;5074720;28;20021;-66
2022/06/21 11:02:48;;;;;;;5.40;1.80;;;31.40;64.60;;;;;;5073923;28;20070;-63
2022/06/21 11:05:21;;;;;;;5.13;2.00;;;32.00;63.80;;;;;;5074412;28;20031;-63
2022/06/21 11:08:14;;;;;;;4.38;1.80;;;31.00;64.40;;;;;;5073259;28;20032;-63
2022/06/21 11:10:50;;;;;;;4.57;2.40;;;30.80;64.60;;;;;;5068593;28;20040;-62
2022/06/21 11:13:19;;;;;;;3.90;2.00;;;28.80;67.80;;;;;;5054939;28;20030;-62
2022/06/21 11:16:14;;;;;;;4.97;2.35;;;28.30;68.70;;;;;;5073012;28;20024;-61
2022/06/21 11:19:10;;;;;;;5.40;2.55;;;28.10;69.50;;;;;;5062693;28;20052;-64
2022/06/21 11:21:41;;;;;;;7.32;1.95;;;27.80;70.80;;;;;;5072655;28;20046;-64
2022/06/21 11:24:23;;;;;;;3.78;2.10;;;27.70;70.10;;;;;;5072901;28;20025;-62
2022/06/21 11:27:13;;;;;;;6.20;2.70;;;27.50;71.30;;;;;;5055400;28;20425;-62
2022/06/21 11:29:49;;;;;;;3.00;1.88;;;27.40;71.60;;;;;;5077893;28;20074;-64
2022/06/21 11:32:41;;;;;;;4.93;2.42;;;27.70;71.80;;;;;;5076621;28;20067;-64
2022/06/21 11:35:14;;;;;;;5.82;2.20;;;27.80;71.40;;;;;;5076677;28;20021;-64
2022/06/21 11:37:48;;;;;;;7.13;2.17;;;27.80;71.40;;;;;;5076463;28;20035;-65
2022/06/21 11:40:25;;;;;;;4.53;2.45;;;27.80;71.00;;;;;;5058549;28;20098;-63
2022/06/21 11:42:55;;;;;;;5.07;2.13;;;27.60;71.80;;;;;;5058905;28;20056;-64
2022/06/21 11:45:45;;;;;;;4.57;2.25;;;27.60;72.10;;;;;;5077283;28;20186;-64
2022/06/21 11:48:21;;;;;;;8.02;2.25;;;27.40;72.80;;;;;;5076584;28;20112;-65
2022/06/21 11:51:11;;;;;;;5.43;2.28;;;27.30;72.60;;;;;;5058246;28;20028;-65
2022/06/21 11:53:39;;;;;;;4.22;2.40;;;27.40;72.30;;;;;;5058262;28;20021;-64
2022/06/21 11:56:05;;;;;;;4.47;3.13;;;27.30;72.80;;;;;;5058401;28;20020;-63
2022/06/21 11:58:42;;;;;;;4.68;2.42;;;27.10;73.50;;;;;;5058034;28;20083;-63
2022/06/21 12:01:25;;;;;;;4.88;2.47;;;26.90;74.00;;;;;;5076001;28;20023;-64
2022/06/21 12:04:15;;;;;;;4.70;2.60;;;26.70;74.60;;;;;;5076475;28;20120;-64
2022/06/21 12:07:10;;;;;;;3.10;2.45;;;26.40;75.30;;;;;;5076344;28;20033;-63
2022/06/21 12:10:07;;;;;;;4.50;2.08;;;26.50;75.50;;;;;;5072616;28;20409;-64
2022/06/21 12:12:54;;;;;;;3.40;2.08;;;26.60;75.10;;;;;;5076594;28;20032;-62
2022/06/21 12:15:46;;;;;;;2.85;2.53;;;26.60;76.10;;;;;;5078223;28;20024;-61
2022/06/21 12:18:23;;;;;;;6.82;2.28;;;26.60;75.50;;;;;;5075807;28;20025;-62
2022/06/21 12:21:15;;;;;;;4.53;2.47;;;26.60;75.40;;;;;;5075473;28;20063;-62
2022/06/21 12:23:52;;;;;;;7.78;2.60;;;26.80;75.90;;;;;;5075271;28;20117;-62
2022/06/21 12:26:24;;;;;;;4.68;2.50;;;27.00;75.50;;;;;;5076044;28;20037;-61
2022/06/21 12:28:52;;;;;;;7.03;2.50;;;27.00;75.20;;;;;;5057160;28;20031;-61
2022/06/21 12:31:23;;;;;;;8.85;2.70;;;27.00;75.50;;;;;;5075524;28;20418;-62
2022/06/21 12:34:03;;;;;;;6.25;2.47;;;27.00;75.70;;;;;;5074858;28;20025;-61
2022/06/21 12:36:46;;;;;;;3.08;2.30;;;27.20;75.70;;;;;;5057262;28;20020;-61
2022/06/21 12:39:33;;;;;;;6.65;2.50;;;27.10;75.30;;;;;;5056292;28;20459;-61
2022/06/21 12:42:16;;;;;;;6.30;2.88;;;27.00;75.40;;;;;;5075344;28;20595;-61
2022/06/21 12:44:48;;;;;;;5.38;2.83;;;27.10;76.00;;;;;;5056835;28;20435;-61
2022/06/21 12:47:21;;;;;;;5.35;2.55;;;26.90;76.30;;;;;;5076085;28;20032;-62
2022/06/21 12:50:24;;;;;;;5.10;2.63;;;26.90;76.80;;;;;;5074704;28;20025;-61
2022/06/21 12:53:00;;;;;;;4.95;2.75;;;26.90;76.90;;;;;;5056512;28;20025;-64
2022/06/21 12:55:35;;;;;;;5.40;2.53;;;26.90;76.70;;;;;;5074926;28;20029;-65
2022/06/21 12:58:06;;;;;;;4.95;2.47;;;27.10;76.90;;;;;;5057143;28;20024;-65
2022/06/21 13:00:51;;;;;;;3.40;2.53;;;27.30;76.60;;;;;;5074770;28;20020;-65
2022/06/21 13:03:24;;;;;;;4.18;2.78;;;27.40;76.40;;;;;;5075052;28;20044;-66
2022/06/21 13:06:01;;;;;;;4.55;2.60;;;27.40;75.80;;;;;;5058511;28;20051;-67
2022/06/21 13:08:27;;;;;;;8.02;2.55;;;27.60;76.10;;;;;;5076951;28;20052;-66
2022/06/21 13:11:19;;;;;;;6.05;3.15;;;27.70;75.50;;;;;;5074731;28;20099;-66
2022/06/21 13:14:07;;;;;;;4.95;2.78;;;27.70;75.30;;;;;;5056873;28;20030;-65
2022/06/21 13:16:39;;;;;;;4.85;2.65;;;27.60;75.70;;;;;;5076054;28;20021;-66
2022/06/21 13:19:27;;;;;;;2.78;2.20;;;27.50;76.10;;;;;;5075591;28;20028;-62
2022/06/21 13:22:27;;;;;;;5.60;2.38;;;27.50;76.90;;;;;;5075969;28;20032;-68
2022/06/21 13:25:29;;;;;;;5.70;3.05;;;27.40;76.10;;;;;;5076490;28;20029;-65
2022/06/21 13:27:59;;;;;;;5.53;2.70;;;27.60;76.20;;;;;;5076220;28;20469;-63
2022/06/21 13:30:34;;;;;;;4.32;2.60;;;27.80;76.10;;;;;;5074889;28;20111;-69
2022/06/21 13:33:12;;;;;;;5.72;3.17;;;27.90;76.00;;;;;;5057175;28;20358;-69
2022/06/21 13:35:58;;;;;;;6.20;3.08;;;27.90;76.60;;;;;;5055830;28;20016;-66
2022/06/21 13:38:41;;;;;;;5.18;2.67;;;27.80;76.30;;;;;;5074510;28;20021;-65
2022/06/21 13:44:10;;;;;;;4.22;2.45;;;27.90;75.80;;;;;;5115781;28;20051;-66
2022/06/21 13:46:40;;;;;;;8.57;3.03;;;27.90;76.80;;;;;;5114009;28;20031;-67
2022/06/21 13:49:30;;;;;;;6.85;3.25;;;27.90;76.00;;;;;;5113684;28;20028;-66
2022/06/21 13:52:29;;;;;;;7.60;3.00;;;28.00;76.20;;;;;;5113860;28;20443;-66
2022/06/21 13:55:16;;;;;;;4.72;2.63;;;28.00;76.00;;;;;;5114001;28;20072;-67
2022/06/21 13:58:00;;;;;;;;;;;27.90;76.10;;;;;;5114250;28;20020;-66
2022/06/21 14:00:34;;;;;;;7.00;2.92;;;28.00;76.10;;;;;;5112435;28;20404;-66
2022/06/21 14:03:21;;;;;;;9.05;2.78;;;28.00;76.30;;;;;;5113892;28;20029;-66